Jay, New York
Current Conditions -  °F | °C
As of 2:51 AM on Wednesday 22 Oct 2014 (Local Time) from KSLK Reporting Station
Haze Haze  
Wind Chill: 35°   Ceiling: 200
Heat Index: 41°   Visibility: 1mi
Dew Point: 40°   Wind: 9mph
Humidity: 96%   Direction: 60°ENE
Pressure: 30.07"   Gusts: NA
Location:  44.37°N, 73.73°W
Report Text: KSLK 220651Z AUTO 06008KT 1SM BR OVC002 05/04 A3007 RMK AO2 SLP192 T00500044
Loading
Personal Weather Stations






























Interactive Weather Map
Tropical Storm Tracking
New forecast layout! Learn more

10-Day Weather Forecast

Advertisements
Track Severe Weather on mobile